Terminal Aerodrome Forecast
Issued by NWS

Home | Current Version | Previous Version | Text Only | Print | Product List | Glossary On
Versions: 1 2 3 4 5 6 7 8 9 10 11 12 13 14 15 16 17 18 19 20 21
893
FTPA31 PHFO 241506 AAA
TAFHTO
TAF AMD
PHTO 241506Z 2415/2512 15011KT P6SM -RA SCT008 OVC035
     FM241600 16011KT P6SM -SHRA BKN025
     FM250600 11011KT P6SM VCSH SCT025 BKN035=

USA.gov is the U.S. government's official web portal to all federal, state and local government web resources and services.